Time;durP1;ratioP1;P1;durP2;ratioP2;P2;SDS_P1;SDS_P2;PMS_P1;PMS_P2;Temp;Humidity;BMP_temperature;BMP_pressure;BME280_temperature;BME280_humidity;BME280_pressure;Samples;Min_cycle;Max_cycle;Signal;HPM_P1;HPM_P2
2021/10/19 00:02:14;;;;;;;;;;;15.20;99.90;;;;;;4995840;28;19949;-73
2021/10/19 00:04:40;;;;;;;;;;;15.20;99.90;;;;;;5013878;28;19996;-73
2021/10/19 00:07:05;;;;;;;;;;;15.30;99.90;;;;;;5013542;28;19909;-72
2021/10/19 00:09:30;;;;;;;;;;;15.20;99.90;;;;;;5013410;28;19909;-73
2021/10/19 00:11:56;;;;;;;;;;;15.20;99.90;;;;;;4996012;28;19975;-73
2021/10/19 00:14:21;;;;;;;;;;;15.20;99.90;;;;;;4993368;28;20334;-72
2021/10/19 00:16:47;;;;;;;;;;;15.20;99.90;;;;;;4995890;28;19914;-73
2021/10/19 00:19:13;;;;;;;;;;;15.20;99.90;;;;;;4995151;28;20382;-72
2021/10/19 00:21:38;;;;;;;;;;;15.20;99.90;;;;;;5016774;28;19914;-73
2021/10/19 00:24:04;;;;;;;;;;;15.20;99.90;;;;;;5019724;28;20111;-73
2021/10/19 00:26:29;;;;;;;;;;;15.30;99.90;;;;;;5017734;28;19993;-73
2021/10/19 00:28:55;;;;;;;;;;;15.30;99.90;;;;;;5018735;28;19918;-73
2021/10/19 00:31:20;;;;;;;;;;;15.30;99.90;;;;;;5018379;28;20433;-72
2021/10/19 00:33:46;;;;;;;;;;;15.20;99.90;;;;;;5001287;28;19913;-74
2021/10/19 00:36:11;;;;;;;;;;;15.20;99.90;;;;;;5002386;28;19975;-73
2021/10/19 00:38:36;;;;;;;;;;;15.30;99.90;;;;;;5019929;28;19921;-74
2021/10/19 00:41:02;;;;;;;;;;;15.20;99.90;;;;;;5019412;28;20259;-73
2021/10/19 00:43:28;;;;;;;;;;;15.20;99.90;;;;;;5015603;28;19914;-73
2021/10/19 00:45:54;;;;;;;;;;;15.30;99.90;;;;;;4995944;28;19917;-72
2021/10/19 00:48:21;;;;;;;;;;;15.30;99.90;;;;;;5022903;28;20267;-71
2021/10/19 00:50:47;;;;;;;;;;;15.30;99.90;;;;;;5004435;28;19914;-72
2021/10/19 00:53:15;;;;;;;;;;;15.30;99.90;;;;;;5019006;28;19913;-73
2021/10/19 00:55:41;;;;;;;;;;;15.30;99.90;;;;;;5020313;28;20007;-73
2021/10/19 00:58:06;;;;;;;;;;;15.30;99.90;;;;;;5023389;28;19955;-73
2021/10/19 01:00:32;;;;;;;;;;;15.30;99.90;;;;;;5024456;28;19917;-72
2021/10/19 01:02:58;;;;;;;;;;;15.30;99.90;;;;;;5023997;28;19944;-73
2021/10/19 01:05:24;;;;;;;;;;;15.30;99.90;;;;;;5024663;28;20423;-73
2021/10/19 01:07:49;;;;;;;;;;;15.40;99.90;;;;;;5021699;28;19956;-77
2021/10/19 01:10:15;;;;;;;;;;;15.40;99.90;;;;;;5021855;28;19917;-76
2021/10/19 01:12:42;;;;;;;;;;;15.40;99.90;;;;;;5004331;28;20214;-76
2021/10/19 01:15:12;;;;;;;;;;;15.40;99.90;;;;;;5038586;28;19941;-75
2021/10/19 01:17:45;;;;;;;;;;;15.40;99.90;;;;;;5023734;28;19967;-77
2021/10/19 01:20:24;;;;;;;;;;;15.40;99.90;;;;;;5020667;28;19917;-77
2021/10/19 01:22:50;;;;;;;;;;;15.40;99.90;;;;;;5021487;28;19920;-77
2021/10/19 01:25:16;;;;;;;;;;;15.40;99.90;;;;;;5003245;28;19917;-77
2021/10/19 01:27:49;;;;;;;;;;;15.30;99.90;;;;;;5021658;28;20437;-77
2021/10/19 01:30:15;;;;;;;;;;;15.20;99.90;;;;;;5021423;28;19925;-77
2021/10/19 01:32:42;;;;;;;;;;;15.20;99.90;;;;;;5005538;28;19914;-77
2021/10/19 01:35:08;;;;;;;;;;;15.20;99.90;;;;;;5011560;28;19913;-76
2021/10/19 01:37:34;;;;;;;;;;;15.10;99.90;;;;;;5027175;28;20413;-76
2021/10/19 01:39:59;;;;;;;;;;;15.10;99.90;;;;;;5033192;28;19921;-77
2021/10/19 01:42:25;;;;;;;;;;;15.00;99.90;;;;;;5033881;28;19948;-77
2021/10/19 01:44:50;;;;;;;;;;;15.10;99.90;;;;;;5032766;28;19920;-77
2021/10/19 01:47:16;;;;;;;;;;;15.00;99.90;;;;;;5034725;28;19912;-75
2021/10/19 01:49:41;;;;;;;;;;;15.10;99.90;;;;;;5042615;28;19922;-77
2021/10/19 01:52:07;;;;;;;;;;;15.10;99.90;;;;;;5024140;28;19905;-77
2021/10/19 01:54:33;;;;;;;;;;;15.10;99.90;;;;;;5042985;28;19922;-77
2021/10/19 01:56:58;;;;;;;;;;;15.10;99.90;;;;;;5042786;28;19913;-77
2021/10/19 01:59:23;;;;;;;;;;;15.10;99.90;;;;;;5021734;28;20110;-76
2021/10/19 02:01:50;;;;;;;;;;;15.10;99.90;;;;;;5021461;28;19908;-76
2021/10/19 02:04:15;;;;;;;;;;;15.20;99.90;;;;;;5039612;28;19952;-77
2021/10/19 02:06:41;;;;;;;;;;;15.20;99.90;;;;;;5023288;28;19905;-76
2021/10/19 02:09:06;;;;;;;;;;;15.10;99.90;;;;;;5022743;28;19948;-76
2021/10/19 02:11:32;;;;;;;;;;;15.10;99.90;;;;;;5038659;28;19917;-76
2021/10/19 02:13:57;;;;;;;;;;;15.10;99.90;;;;;;5038432;28;19928;-76
2021/10/19 02:16:23;;;;;;;;;;;15.10;99.90;;;;;;5036570;28;19901;-77
2021/10/19 02:18:48;;;;;;;;;;;15.20;99.90;;;;;;5034744;28;19913;-77
2021/10/19 02:21:14;;;;;;;;;;;15.20;99.90;;;;;;5031131;28;19925;-77
2021/10/19 02:23:39;;;;;;;;;;;15.20;99.90;;;;;;5006440;28;19913;-75
2021/10/19 02:26:05;;;;;;;;;;;15.20;99.90;;;;;;5023091;28;20396;-75
2021/10/19 02:28:30;;;;;;;;;;;15.30;99.90;;;;;;5021080;28;19917;-76
2021/10/19 02:30:56;;;;;;;;;;;15.30;99.90;;;;;;5021191;28;19936;-77
2021/10/19 02:33:21;;;;;;;;;;;15.30;99.90;;;;;;5019184;28;20016;-76
2021/10/19 02:35:47;;;;;;;;;;;15.30;99.90;;;;;;5018726;28;20013;-76
2021/10/19 02:38:13;;;;;;;;;;;15.30;99.90;;;;;;4999683;28;19917;-76
2021/10/19 02:40:38;;;;;;;;;;;15.30;99.90;;;;;;4999547;28;19961;-77
2021/10/19 02:43:04;;;;;;;;;;;15.30;99.90;;;;;;5002190;28;19918;-76
2021/10/19 02:45:30;;;;;;;;;;;15.30;99.90;;;;;;5036517;28;19909;-76
2021/10/19 02:47:55;;;;;;;;;;;15.30;99.90;;;;;;5021324;28;19902;-76
2021/10/19 02:50:21;;;;;;;;;;;15.40;99.90;;;;;;5037028;28;19990;-76
2021/10/19 02:52:46;;;;;;;;;;;15.40;99.90;;;;;;5016690;28;19913;-76
2021/10/19 02:55:17;;;;;;;;;;;15.40;99.90;;;;;;5029693;28;19913;-77
2021/10/19 02:57:44;;;;;;;;;;;15.40;99.90;;;;;;5022138;28;19913;-75
2021/10/19 03:00:10;;;;;;;;;;;15.40;99.90;;;;;;5021002;28;20245;-75
2021/10/19 03:02:35;;;;;;;;;;;15.40;99.90;;;;;;5021935;28;20394;-75
2021/10/19 03:05:01;;;;;;;;;;;15.40;99.90;;;;;;5003498;28;19914;-76
2021/10/19 03:07:26;;;;;;;;;;;15.40;99.90;;;;;;5020587;28;19913;-75
2021/10/19 03:09:52;;;;;;;;;;;15.50;99.90;;;;;;5003496;28;20402;-76
2021/10/19 03:12:17;;;;;;;;;;;15.50;99.90;;;;;;4998241;28;20286;-76
2021/10/19 03:14:43;;;;;;;;;;;15.50;99.90;;;;;;5017849;28;19913;-75
2021/10/19 03:17:08;;;;;;;;;;;15.40;99.90;;;;;;5020942;28;19917;-76
2021/10/19 03:19:34;;;;;;;;;;;15.50;99.90;;;;;;5019111;28;19960;-76
2021/10/19 03:21:59;;;;;;;;;;;15.50;99.90;;;;;;5019176;28;19971;-76
2021/10/19 03:24:25;;;;;;;;;;;15.60;99.90;;;;;;5019576;28;20000;-76
2021/10/19 03:26:50;;;;;;;;;;;15.50;99.90;;;;;;5017521;28;19918;-76
2021/10/19 03:29:17;;;;;;;;;;;15.50;99.90;;;;;;5000131;28;19920;-76
2021/10/19 03:31:43;;;;;;;;;;;15.50;99.90;;;;;;5017506;28;19910;-76
2021/10/19 03:34:08;;;;;;;;;;;15.50;99.90;;;;;;5016800;28;19921;-77
2021/10/19 03:36:34;;;;;;;;;;;15.50;99.90;;;;;;4998737;28;20001;-76
2021/10/19 03:38:59;;;;;;;;;;;15.50;99.90;;;;;;4998246;28;19913;-76
2021/10/19 03:41:25;;;;;;;;;;;15.50;99.90;;;;;;4997643;28;19909;-76
2021/10/19 03:43:50;;;;;;;;;;;15.50;99.90;;;;;;5014741;28;19920;-76
2021/10/19 03:46:16;;;;;;;;;;;15.50;99.90;;;;;;5014952;28;19910;-76
2021/10/19 03:48:41;;;;;;;;;;;15.50;99.90;;;;;;5015676;28;19936;-77
2021/10/19 03:51:07;;;;;;;;;;;15.50;99.90;;;;;;5015480;28;19940;-77
2021/10/19 03:53:32;;;;;;;;;;;15.40;99.90;;;;;;5014563;28;20382;-77
2021/10/19 03:55:58;;;;;;;;;;;15.50;99.90;;;;;;5013961;28;19964;-77
2021/10/19 03:58:23;;;;;;;;;;;15.40;99.90;;;;;;5014035;28;19914;-77
2021/10/19 04:00:49;;;;;;;;;;;15.50;99.90;;;;;;5013136;28;19918;-75
2021/10/19 04:03:15;;;;;;;;;;;15.50;99.90;;;;;;5013722;28;19940;-76
2021/10/19 04:05:41;;;;;;;;;;;15.50;99.90;;;;;;5013576;28;20271;-75
2021/10/19 04:08:07;;;;;;;;;;;15.50;99.90;;;;;;5014083;28;19940;-76
2021/10/19 04:10:32;;;;;;;;;;;15.50;99.90;;;;;;5013405;28;19914;-76
2021/10/19 04:12:58;;;;;;;;;;;15.50;99.90;;;;;;4995629;28;19922;-75
2021/10/19 04:15:23;;;;;;;;;;;15.50;99.90;;;;;;5013225;28;19913;-76
2021/10/19 04:17:49;;;;;;;;;;;15.60;99.90;;;;;;5014033;28;20293;-76
2021/10/19 04:20:14;;;;;;;;;;;15.50;99.90;;;;;;5012537;28;19922;-75
2021/10/19 04:22:40;;;;;;;;;;;15.60;99.90;;;;;;4995341;28;19914;-76
2021/10/19 04:25:06;;;;;;;;;;;15.60;99.90;;;;;;5012896;28;20325;-76
2021/10/19 04:27:32;;;;;;;;;;;15.50;99.90;;;;;;5013170;28;19921;-76
2021/10/19 04:29:58;;;;;;;;;;;15.50;99.90;;;;;;4995497;28;19914;-76
2021/10/19 04:32:23;;;;;;;;;;;15.50;99.90;;;;;;4995571;28;19921;-77
2021/10/19 04:34:50;;;;;;;;;;;15.50;99.90;;;;;;4994836;28;19948;-76
2021/10/19 04:37:16;;;;;;;;;;;15.50;99.90;;;;;;4995857;28;20000;-76
2021/10/19 04:39:41;;;;;;;;;;;15.50;99.90;;;;;;4995180;28;20030;-77
2021/10/19 04:42:07;;;;;;;;;;;15.50;99.90;;;;;;5012758;28;19913;-76
2021/10/19 04:44:32;;;;;;;;;;;15.50;99.90;;;;;;4996495;28;20040;-77
2021/10/19 04:46:58;;;;;;;;;;;15.50;99.90;;;;;;4995865;28;19982;-76
2021/10/19 04:49:23;;;;;;;;;;;15.50;99.90;;;;;;5013189;28;19922;-77
2021/10/19 04:51:49;;;;;;;;;;;15.50;99.90;;;;;;5013794;28;20283;-76
2021/10/19 04:54:14;;;;;;;;;;;15.50;99.90;;;;;;5012914;28;19917;-76
2021/10/19 04:56:40;;;;;;;;;;;15.50;99.90;;;;;;5013725;28;20000;-75
2021/10/19 04:59:05;;;;;;;;;;;15.50;99.90;;;;;;4995393;28;19917;-76
2021/10/19 05:01:31;;;;;;;;;;;15.50;99.90;;;;;;5012920;28;19919;-76
2021/10/19 05:03:56;;;;;;;;;;;15.60;99.90;;;;;;5013115;28;19940;-76
2021/10/19 05:06:22;;;;;;;;;;;15.60;99.90;;;;;;5013443;28;19914;-75
2021/10/19 05:08:47;;;;;;;;;;;15.60;99.90;;;;;;4996136;28;19913;-76
2021/10/19 05:11:13;;;;;;;;;;;15.60;99.90;;;;;;5010166;28;20386;-75
2021/10/19 05:13:38;;;;;;;;;;;15.60;99.90;;;;;;5000759;28;20329;-76
2021/10/19 05:16:04;;;;;;;;;;;15.60;99.90;;;;;;5013444;28;19917;-75
2021/10/19 05:18:30;;;;;;;;;;;15.60;99.90;;;;;;5013042;28;19914;-76
2021/10/19 05:20:55;;;;;;;;;;;15.60;99.90;;;;;;5012728;28;19917;-76
2021/10/19 05:23:21;;;;;;;;;;;15.60;99.90;;;;;;5013446;28;20457;-77
2021/10/19 05:25:46;;;;;;;;;;;15.60;99.90;;;;;;5013302;28;19957;-76
2021/10/19 05:28:12;;;;;;;;;;;15.60;99.90;;;;;;5012413;28;19940;-77
2021/10/19 05:30:37;;;;;;;;;;;15.60;99.90;;;;;;4994994;28;19996;-76
2021/10/19 05:33:06;;;;;;;;;;;15.60;99.90;;;;;;4997102;28;20386;-76
2021/10/19 05:35:31;;;;;;;;;;;15.50;99.90;;;;;;5016526;28;20060;-78
2021/10/19 05:37:58;;;;;;;;;;;15.50;99.90;;;;;;5016446;28;19913;-77
2021/10/19 05:40:23;;;;;;;;;;;15.50;99.90;;;;;;5015183;28;19926;-76
2021/10/19 05:42:49;;;;;;;;;;;15.60;99.90;;;;;;5016950;28;19914;-75
2021/10/19 05:45:15;;;;;;;;;;;15.60;99.90;;;;;;5016341;28;19918;-76
2021/10/19 05:47:45;;;;;;;;;;;15.60;99.90;;;;;;4998954;28;20024;-76
2021/10/19 05:50:11;;;;;;;;;;;15.60;99.90;;;;;;5016785;28;19964;-77
2021/10/19 05:52:36;;;;;;;;;;;15.60;99.90;;;;;;5015859;28;19959;-75
2021/10/19 05:55:02;;;;;;;;;;;15.70;99.90;;;;;;5016462;28;20384;-75
2021/10/19 05:57:27;;;;;;;;;;;15.70;99.90;;;;;;5016874;28;19914;-77
2021/10/19 05:59:53;;;;;;;;;;;15.60;99.90;;;;;;5016023;28;20374;-77
2021/10/19 06:02:18;;;;;;;;;;;15.60;99.90;;;;;;5015834;28;19921;-77
2021/10/19 06:04:44;;;;;;;;;;;15.60;99.90;;;;;;4998772;28;19924;-77
2021/10/19 06:07:09;;;;;;;;;;;15.60;99.90;;;;;;5016242;28;19960;-77
2021/10/19 06:09:36;;;;;;;;;;;15.70;99.90;;;;;;5015949;28;19914;-77
2021/10/19 06:12:01;;;;;;;;;;;15.70;99.90;;;;;;4998237;28;19929;-76
2021/10/19 06:14:29;;;;;;;;;;;15.70;99.90;;;;;;5016195;28;19920;-76
2021/10/19 06:16:54;;;;;;;;;;;15.80;99.90;;;;;;5016174;28;19972;-76
2021/10/19 06:19:20;;;;;;;;;;;15.80;99.90;;;;;;5015931;28;20290;-76
2021/10/19 06:21:46;;;;;;;;;;;15.80;99.90;;;;;;5015429;28;20293;-76
2021/10/19 06:24:11;;;;;;;;;;;15.80;99.90;;;;;;5015790;28;19937;-77
2021/10/19 06:26:37;;;;;;;;;;;15.80;99.90;;;;;;4998084;28;19913;-76
2021/10/19 06:29:04;;;;;;;;;;;15.80;99.90;;;;;;5015220;28;19913;-76
2021/10/19 06:31:30;;;;;;;;;;;15.90;99.90;;;;;;4998289;28;20477;-77
2021/10/19 06:33:56;;;;;;;;;;;15.90;99.90;;;;;;5015664;28;19913;-76
2021/10/19 06:36:21;;;;;;;;;;;15.90;99.90;;;;;;4997918;28;19961;-77
2021/10/19 06:38:47;;;;;;;;;;;15.90;99.90;;;;;;5015297;28;19937;-77
2021/10/19 06:41:12;;;;;;;;;;;15.90;99.90;;;;;;4998009;28;19918;-77
2021/10/19 06:43:38;;;;;;;;;;;15.90;99.90;;;;;;5015503;28;19920;-77
2021/10/19 06:46:04;;;;;;;;;;;15.90;99.90;;;;;;5015087;28;19921;-77
2021/10/19 06:48:29;;;;;;;;;;;15.90;99.90;;;;;;4997744;28;19913;-76
2021/10/19 06:50:55;;;;;;;;;;;15.90;99.90;;;;;;4997897;28;19936;-78
2021/10/19 06:53:20;;;;;;;;;;;16.00;99.90;;;;;;5015209;28;19921;-77
2021/10/19 06:55:46;;;;;;;;;;;16.00;99.90;;;;;;5010307;28;19921;-77
2021/10/19 06:58:11;;;;;;;;;;;16.00;99.90;;;;;;4989833;28;19914;-77
2021/10/19 07:00:37;;;;;;;;;;;16.10;99.90;;;;;;5014912;28;20035;-77
2021/10/19 07:03:03;;;;;;;;;;;16.10;99.90;;;;;;5015535;28;20055;-78
2021/10/19 07:05:28;;;;;;;;;;;16.10;99.90;;;;;;5015277;28;19913;-79
2021/10/19 07:07:54;;;;;;;;;;;16.10;99.90;;;;;;4997363;28;20300;-77
2021/10/19 07:10:20;;;;;;;;;;;16.10;99.90;;;;;;5015176;28;20020;-78
2021/10/19 07:12:46;;;;;;;;;;;16.10;99.90;;;;;;5014845;28;19921;-77
2021/10/19 07:15:12;;;;;;;;;;;16.10;99.90;;;;;;5014400;28;19913;-77
2021/10/19 07:17:38;;;;;;;;;;;16.10;99.90;;;;;;4997739;28;20362;-78
2021/10/19 07:20:07;;;;;;;;;;;16.10;99.90;;;;;;4997113;28;19917;-77
2021/10/19 07:22:33;;;;;;;;;;;16.10;99.90;;;;;;5015418;28;19996;-76
2021/10/19 07:24:59;;;;;;;;;;;16.10;99.90;;;;;;5014646;28;19941;-76
2021/10/19 07:27:25;;;;;;;;;;;16.10;99.90;;;;;;5014455;28;19922;-76
2021/10/19 07:29:50;;;;;;;;;;;16.20;99.90;;;;;;4996384;28;19913;-76
2021/10/19 07:32:16;;;;;;;;;;;16.20;99.90;;;;;;5014518;28;19914;-77
2021/10/19 07:34:41;;;;;;;;;;;16.20;99.90;;;;;;5014505;28;19917;-77
2021/10/19 07:37:07;;;;;;;;;;;16.20;99.90;;;;;;5014775;28;19913;-76
2021/10/19 07:39:32;;;;;;;;;;;16.20;99.90;;;;;;5014322;28;19917;-77
2021/10/19 07:41:58;;;;;;;;;;;16.20;99.90;;;;;;5014662;28;20370;-76
2021/10/19 07:44:23;;;;;;;;;;;16.20;99.90;;;;;;4996867;28;20412;-76
2021/10/19 07:46:51;;;;;;;;;;;16.20;99.90;;;;;;5013779;28;19992;-76
2021/10/19 07:49:18;;;;;;;;;;;16.30;99.90;;;;;;5013953;28;19923;-78
2021/10/19 07:51:43;;;;;;;;;;;16.30;99.90;;;;;;5013762;28;19988;-77
2021/10/19 07:54:09;;;;;;;;;;;16.30;99.90;;;;;;5014078;28;19948;-76
2021/10/19 07:56:34;;;;;;;;;;;16.30;99.90;;;;;;4995077;28;19918;-78
2021/10/19 07:59:05;;;;;;;;;;;16.30;99.90;;;;;;5013488;28;19913;-78
2021/10/19 08:01:31;;;;;;;;;;;16.30;99.90;;;;;;5013036;28;19917;-77
2021/10/19 08:03:56;;;;;;;;;;;16.30;99.90;;;;;;5011158;28;19920;-77
2021/10/19 08:06:21;;;;;;;;;;;16.30;99.90;;;;;;5009690;28;20294;-77
2021/10/19 08:08:47;;;;;;;;;;;16.30;99.90;;;;;;4994356;28;19968;-78
2021/10/19 08:11:13;;;;;;;;;;;16.30;99.90;;;;;;5010237;28;19918;-77
2021/10/19 08:13:38;;;;;;;;;;;16.40;99.90;;;;;;5010581;28;19913;-77
2021/10/19 08:16:04;;;;;;;;;;;16.40;99.90;;;;;;4993834;28;19917;-79
2021/10/19 08:18:29;;;;;;;;;;;16.50;99.90;;;;;;4995996;28;19963;-78
2021/10/19 08:20:55;;;;;;;;;;;16.40;99.90;;;;;;4998073;28;20389;-78
2021/10/19 08:23:21;;;;;;;;;;;16.40;99.90;;;;;;5013595;28;20366;-81
2021/10/19 08:25:47;;;;;;;;;;;16.50;99.90;;;;;;4996437;28;19921;-77
2021/10/19 08:28:23;;;;;;;;;;;16.50;99.90;;;;;;4996157;28;19914;-78
2021/10/19 08:30:49;;;;;;;;;;;16.50;99.90;;;;;;4996154;28;19913;-78
2021/10/19 08:33:15;;;;;;;;;;;16.60;99.90;;;;;;5013439;28;19917;-79
2021/10/19 08:35:40;;;;;;;;;;;16.50;99.90;;;;;;5013659;28;19999;-77
2021/10/19 08:38:06;;;;;;;;;;;16.60;99.90;;;;;;5013150;28;20329;-83
2021/10/19 08:40:31;;;;;;;;;;;16.60;99.90;;;;;;4993297;28;19984;-77
2021/10/19 08:42:57;;;;;;;;;;;16.60;99.90;;;;;;5001079;28;19914;-78
2021/10/19 08:45:23;;;;;;;;;;;16.70;99.90;;;;;;4994535;28;20039;-77
2021/10/19 08:47:49;;;;;;;;;;;16.70;99.90;;;;;;5010716;28;19959;-80
2021/10/19 08:50:17;;;;;;;;;;;16.70;99.90;;;;;;5013683;28;20422;-79
2021/10/19 08:52:43;;;;;;;;;;;16.70;99.90;;;;;;5013080;28;19913;-79
2021/10/19 08:55:08;;;;;;;;;;;16.80;99.90;;;;;;5012289;28;19913;-79
2021/10/19 08:57:34;;;;;;;;;;;16.70;99.90;;;;;;5012426;28;20381;-80
2021/10/19 09:00:00;;;;;;;;;;;16.80;99.90;;;;;;5011757;28;19945;-79
2021/10/19 09:02:36;;;;;;;;;;;16.80;99.90;;;;;;5013694;28;19913;-79
2021/10/19 09:05:03;;;;;;;;;;;16.80;99.90;;;;;;4996176;28;19928;-80
2021/10/19 09:07:29;;;;;;;;;;;16.80;99.90;;;;;;5015108;28;19913;-80
2021/10/19 09:09:54;;;;;;;;;;;16.80;99.90;;;;;;5017072;28;20281;-80
2021/10/19 09:12:23;;;;;;;;;;;16.80;99.90;;;;;;5016953;28;19922;-80
2021/10/19 09:14:48;;;;;;;;;;;16.80;99.90;;;;;;5017792;28;20349;-79
2021/10/19 09:17:14;;;;;;;;;;;16.90;99.90;;;;;;5016856;28;20007;-80
2021/10/19 09:19:41;;;;;;;;;;;16.90;99.90;;;;;;5011410;28;19917;-77
2021/10/19 09:22:08;;;;;;;;;;;16.90;99.90;;;;;;5013407;28;19918;-78
2021/10/19 09:24:38;;;;;;;;;;;17.00;99.90;;;;;;5015942;28;19913;-79
2021/10/19 09:27:05;;;;;;;;;;;17.00;99.90;;;;;;4999570;28;19960;-79
2021/10/19 09:29:34;;;;;;;;;;;17.00;99.90;;;;;;5016685;28;20008;-80
2021/10/19 09:32:01;;;;;;;;;;;17.10;99.90;;;;;;5016029;28;19914;-80
2021/10/19 09:34:29;;;;;;;;;;;17.00;99.90;;;;;;5017621;28;19913;-79
2021/10/19 09:36:54;;;;;;;;;;;17.10;99.90;;;;;;5017098;28;19971;-80
2021/10/19 09:39:32;;;;;;;;;;;17.10;99.90;;;;;;4998264;28;20004;-80
2021/10/19 09:41:58;;;;;;;;;;;17.10;99.90;;;;;;5016931;28;20299;-81
2021/10/19 09:44:24;;;;;;;;;;;17.20;99.90;;;;;;5016709;28;19914;-82
2021/10/19 09:46:49;;;;;;;;;;;17.20;99.90;;;;;;5014597;28;19920;-80
2021/10/19 09:49:15;;;;;;;;;;;17.20;99.90;;;;;;5006046;28;20282;-81
2021/10/19 09:51:40;;;;;;;;;;;17.20;99.90;;;;;;5016434;28;20352;-79
2021/10/19 09:54:07;;;;;;;;;;;17.20;99.90;;;;;;5016227;28;19924;-82
2021/10/19 09:56:34;;;;;;;;;;;17.20;99.90;;;;;;4999020;28;19913;-81
2021/10/19 09:59:01;;;;;;;;;;;17.20;99.90;;;;;;4998365;28;19967;-79
2021/10/19 10:01:26;;;;;;;;;;;17.30;99.90;;;;;;5014857;28;19968;-79
2021/10/19 10:03:52;;;;;;;;;;;17.30;99.90;;;;;;5015378;28;19914;-79
2021/10/19 10:06:18;;;;;;;;;;;17.30;99.90;;;;;;5015984;28;19913;-81
2021/10/19 10:08:44;;;;;;;;;;;17.40;99.90;;;;;;4993720;28;19920;-80
2021/10/19 10:11:10;;;;;;;;;;;17.30;99.90;;;;;;5001228;28;19968;-79
2021/10/19 10:13:36;;;;;;;;;;;17.30;99.90;;;;;;4992880;28;20362;-79
2021/10/19 10:16:08;;;;;;;;;;;17.30;99.90;;;;;;5011233;28;20301;-79
2021/10/19 10:18:34;;;;;;;;;;;17.30;99.90;;;;;;4997689;28;19917;-80
2021/10/19 10:21:11;;;;;;;;;;;17.30;99.90;;;;;;4995292;28;19924;-80
2021/10/19 10:23:36;;;;;;;;;;;17.40;99.90;;;;;;4996332;28;19920;-80
2021/10/19 10:26:03;;;;;;;;;;;17.40;99.90;;;;;;5014570;28;20290;-81
2021/10/19 10:28:30;;;;;;;;;;;17.50;99.90;;;;;;5014390;28;19913;-80
2021/10/19 10:30:57;;;;;;;;;;;17.50;99.90;;;;;;5015920;28;20290;-80
2021/10/19 10:33:33;;;;;;;;;;;17.50;99.90;;;;;;4995546;28;19914;-81
2021/10/19 10:36:00;;;;;;;;;;;17.60;99.90;;;;;;5015389;28;20301;-81
2021/10/19 10:38:26;;;;;;;;;;;17.60;99.90;;;;;;5013184;28;19933;-80
2021/10/19 10:40:56;;;;;;;;;;;17.60;99.90;;;;;;5014897;28;19917;-81
2021/10/19 10:43:22;;;;;;;;;;;17.70;99.90;;;;;;4995930;28;19913;-79
2021/10/19 10:45:48;;;;;;;;;;;17.80;99.90;;;;;;5014789;28;19997;-80
2021/10/19 10:48:15;;;;;;;;;;;17.80;99.90;;;;;;5013650;28;19924;-80
2021/10/19 10:50:40;;;;;;;;;;;17.80;99.90;;;;;;4997340;28;19935;-80
2021/10/19 10:53:07;;;;;;;;;;;17.80;99.90;;;;;;5012132;28;19918;-81
2021/10/19 10:55:35;;;;;;;;;;;17.90;99.90;;;;;;5014447;28;19949;-79
2021/10/19 10:58:01;;;;;;;;;;;17.90;99.90;;;;;;5013374;28;19914;-80
2021/10/19 11:00:26;;;;;;;;;;;17.90;99.90;;;;;;5015578;28;20377;-79
2021/10/19 11:03:05;;;;;;;;;;;17.90;99.90;;;;;;5014733;28;20437;-80
2021/10/19 11:05:31;;;;;;;;;;;18.00;99.90;;;;;;5014862;28;19920;-82
2021/10/19 11:07:57;;;;;;;;;;;17.90;99.90;;;;;;5015415;28;19913;-80
2021/10/19 11:10:22;;;;;;;;;;;18.00;99.90;;;;;;5013326;28;20397;-81
2021/10/19 11:12:57;;;;;;;;;;;18.00;99.90;;;;;;4994107;28;19921;-80
2021/10/19 11:15:23;;;;;;;;;;;17.90;99.90;;;;;;4997311;28;20385;-81
2021/10/19 11:17:50;;;;;;;;;;;18.00;99.90;;;;;;5013493;28;19928;-80
2021/10/19 11:20:19;;;;;;;;;;;18.00;99.90;;;;;;4995636;28;20007;-81
2021/10/19 11:22:45;;;;;;;;;;;18.10;99.90;;;;;;5013176;28;19917;-79
2021/10/19 11:25:11;;;;;;;;;;;18.10;99.90;;;;;;4995705;28;19921;-79
2021/10/19 11:27:37;;;;;;;;;;;18.10;99.90;;;;;;5012726;28;19914;-79
2021/10/19 11:30:07;;;;;;;;;;;18.20;99.90;;;;;;5013540;28;19968;-78
2021/10/19 11:32:33;;;;;;;;;;;18.20;99.90;;;;;;4994550;28;19914;-79
2021/10/19 11:34:59;;;;;;;;;;;18.20;99.90;;;;;;5014082;28;19957;-79
2021/10/19 11:37:25;;;;;;;;;;;18.20;99.90;;;;;;4996234;28;19948;-80
2021/10/19 11:40:03;;;;;;;;;;;18.20;99.90;;;;;;5010214;28;19917;-80
2021/10/19 11:42:28;;;;;;;;;;;18.20;99.90;;;;;;5012693;28;19913;-78
2021/10/19 11:44:54;;;;;;;;;;;18.20;99.90;;;;;;5014222;28;19917;-78
2021/10/19 11:47:19;;;;;;;;;;;18.20;99.90;;;;;;4996455;28;19959;-79
2021/10/19 11:49:46;;;;;;;;;;;18.20;99.90;;;;;;5014169;28;19914;-79
2021/10/19 11:52:12;;;;;;;;;;;18.30;99.90;;;;;;5011883;28;19917;-78
2021/10/19 11:54:38;;;;;;;;;;;18.30;99.90;;;;;;5014282;28;19963;-79
2021/10/19 11:57:05;;;;;;;;;;;18.30;99.90;;;;;;4995647;28;20314;-78
2021/10/19 11:59:41;;;;;;;;;;;18.30;99.90;;;;;;4994503;28;20315;-79
2021/10/19 12:02:07;;;;;;;;;;;18.20;99.90;;;;;;4994922;28;19985;-78
2021/10/19 12:04:37;;;;;;;;;;;18.20;99.90;;;;;;4996669;28;19925;-79
2021/10/19 12:07:03;;;;;;;;;;;18.20;99.90;;;;;;5008409;28;19988;-79
2021/10/19 12:09:28;;;;;;;;;;;18.20;99.90;;;;;;4995752;28;20004;-80
2021/10/19 12:11:55;;;;;;;;;;;18.20;99.90;;;;;;5011939;28;19994;-79
2021/10/19 12:14:35;;;;;;;;;;;18.20;99.90;;;;;;5010391;28;19921;-80
2021/10/19 12:17:01;;;;;;;;;;;18.30;99.90;;;;;;4995305;28;19913;-79
2021/10/19 12:19:27;;;;;;;;;;;18.20;99.90;;;;;;4996133;28;19914;-79
2021/10/19 12:21:57;;;;;;;;;;;18.20;99.90;;;;;;5012868;28;20290;-78
2021/10/19 12:24:24;;;;;;;;;;;18.20;99.90;;;;;;5010883;28;20437;-79
2021/10/19 12:27:03;;;;;;;;;;;18.20;99.90;;;;;;4994068;28;19963;-79
2021/10/19 12:29:30;;;;;;;;;;;18.20;99.90;;;;;;4993092;28;20417;-79
2021/10/19 12:31:55;;;;;;;;;;;18.20;99.90;;;;;;4994823;28;19960;-82
2021/10/19 12:34:23;;;;;;;;;;;18.10;99.90;;;;;;5013020;28;19914;-79
2021/10/19 12:36:49;;;;;;;;;;;18.20;99.90;;;;;;5012689;28;20393;-79
2021/10/19 12:39:16;;;;;;;;;;;18.20;99.90;;;;;;4995766;28;19921;-79
2021/10/19 12:41:42;;;;;;;;;;;18.20;99.90;;;;;;5011415;28;19913;-79
2021/10/19 12:44:12;;;;;;;;;;;18.20;99.90;;;;;;4995736;28;19967;-79
2021/10/19 12:46:38;;;;;;;;;;;18.20;99.90;;;;;;5012671;28;19914;-79
2021/10/19 12:49:05;;;;;;;;;;;18.20;99.90;;;;;;4994683;28;19921;-78
2021/10/19 12:51:31;;;;;;;;;;;18.20;99.90;;;;;;4995934;28;19920;-79
2021/10/19 12:53:57;;;;;;;;;;;18.30;99.90;;;;;;4994821;28;20008;-78
2021/10/19 12:56:24;;;;;;;;;;;18.40;99.90;;;;;;4996213;28;19960;-79
2021/10/19 12:58:50;;;;;;;;;;;18.50;99.90;;;;;;5011790;28;19944;-78
2021/10/19 13:01:16;;;;;;;;;;;18.50;99.90;;;;;;5013266;28;19965;-79
2021/10/19 13:03:41;;;;;;;;;;;18.60;99.90;;;;;;5012864;28;19960;-78
2021/10/19 13:06:07;;;;;;;;;;;18.60;99.90;;;;;;5012164;28;19917;-79
2021/10/19 13:08:33;;;;;;;;;;;18.60;99.90;;;;;;5012006;28;19914;-79
2021/10/19 13:10:58;;;;;;;;;;;18.70;99.90;;;;;;4995619;28;19914;-79
2021/10/19 13:13:24;;;;;;;;;;;18.70;99.90;;;;;;4993596;28;19947;-79
2021/10/19 13:15:50;;;;;;;;;;;18.80;99.90;;;;;;4995770;28;19963;-77
2021/10/19 13:18:15;;;;;;;;;;;18.80;99.90;;;;;;4993657;28;19914;-78
2021/10/19 13:20:41;;;;;;;;;;;18.80;99.90;;;;;;4994781;28;19961;-77
2021/10/19 13:23:07;;;;;;;;;;;18.90;99.90;;;;;;5011939;28;19914;-77
2021/10/19 13:25:32;;;;;;;;;;;18.90;99.90;;;;;;5011775;28;20363;-79
2021/10/19 13:27:58;;;;;;;;;;;19.00;99.90;;;;;;5008260;28;19913;-79
2021/10/19 13:30:24;;;;;;;;;;;19.10;99.90;;;;;;5012530;28;19921;-79
2021/10/19 13:32:52;;;;;;;;;;;19.40;99.90;;;;;;5006802;28;19944;-78
2021/10/19 13:35:24;;;;;;;;;;;19.70;99.90;;;;;;5007020;28;19971;-81
2021/10/19 13:37:49;;;;;;;;;;;19.70;99.90;;;;;;5008895;28;19914;-80
2021/10/19 13:40:16;;;;;;;;;;;19.70;99.90;;;;;;5005969;28;19917;-83
2021/10/19 13:42:42;;;;;;;;;;;19.70;99.90;;;;;;5006436;28;19949;-82
2021/10/19 13:45:08;;;;;;;;;;;19.80;99.90;;;;;;4988109;28;19914;-78
2021/10/19 13:47:33;;;;;;;;;;;19.70;99.90;;;;;;5006812;28;19960;-80
2021/10/19 13:49:59;;;;;;;;;;;19.60;99.90;;;;;;5009806;28;19917;-81
2021/10/19 13:52:25;;;;;;;;;;;19.70;99.90;;;;;;4992649;28;19921;-79
2021/10/19 13:54:51;;;;;;;;;;;19.60;99.90;;;;;;4997199;28;20289;-79
2021/10/19 13:57:17;;;;;;;;;;;19.60;99.90;;;;;;5015937;28;19914;-79
2021/10/19 13:59:42;;;;;;;;;;;19.60;99.90;;;;;;4997978;28;20278;-78
2021/10/19 14:02:08;;;;;;;;;;;19.60;99.90;;;;;;5016000;28;19913;-77
2021/10/19 14:04:33;;;;;;;;;;;19.60;99.90;;;;;;4998265;28;19924;-80
2021/10/19 14:06:59;;;;;;;;;;;19.80;99.90;;;;;;5015323;28;19913;-79
2021/10/19 14:09:27;;;;;;;;;;;19.80;99.90;;;;;;5014060;28;19914;-79
2021/10/19 14:11:53;;;;;;;;;;;19.80;99.90;;;;;;4998149;28;19936;-79